createdAt,value
2023-09-23T00:02:39.986Z,1.47
2023-09-23T00:06:42.777Z,1.50
2023-09-23T00:10:45.894Z,1.70
2023-09-23T00:14:47.650Z,1.43
2023-09-23T00:18:52.384Z,1.40
2023-09-23T00:22:55.442Z,1.53
2023-09-23T00:26:57.388Z,1.50
2023-09-23T00:31:06.713Z,1.77
2023-09-23T00:35:10.527Z,1.90
2023-09-23T00:39:12.132Z,1.60
2023-09-23T00:43:13.821Z,1.60
2023-09-23T00:47:16.050Z,1.50
2023-09-23T00:51:19.147Z,1.50
2023-09-23T00:55:21.260Z,1.40
2023-09-23T00:59:23.123Z,1.63
2023-09-23T01:03:24.758Z,1.50
2023-09-23T01:07:29.238Z,1.40
2023-09-23T01:11:32.373Z,1.33
2023-09-23T01:15:33.970Z,1.40
2023-09-23T01:19:35.485Z,1.60
2023-09-23T01:23:38.602Z,1.37
2023-09-23T01:27:40.580Z,1.73
2023-09-23T01:31:42.227Z,1.50
2023-09-23T01:35:43.990Z,1.60
2023-09-23T01:39:46.846Z,2.30
2023-09-23T01:43:48.345Z,1.80
2023-09-23T01:47:50.090Z,1.50
2023-09-23T01:51:51.637Z,1.60
2023-09-23T01:55:55.127Z,1.67
2023-09-23T01:59:56.627Z,1.60
2023-09-23T02:03:58.317Z,1.47
2023-09-23T02:07:59.864Z,1.50
2023-09-23T02:12:03.264Z,1.50
2023-09-23T02:16:05.414Z,1.40
2023-09-23T02:20:10.894Z,1.30
2023-09-23T02:24:12.643Z,1.33
2023-09-23T02:28:15.980Z,1.27
2023-09-23T02:32:17.646Z,1.33
2023-09-23T02:36:19.257Z,1.60
2023-09-23T02:40:20.795Z,1.50
2023-09-23T02:44:23.823Z,1.30
2023-09-23T02:48:25.250Z,1.60
2023-09-23T02:52:26.699Z,1.30
2023-09-23T02:56:28.198Z,1.47
2023-09-23T03:00:31.127Z,1.70
2023-09-23T03:04:33.366Z,1.33
2023-09-23T03:08:36.093Z,1.33
2023-09-23T03:12:40.039Z,1.50
2023-09-23T03:16:43.286Z,1.40
2023-09-23T03:20:44.857Z,1.20
2023-09-23T03:24:46.451Z,1.10
2023-09-23T03:28:48.397Z,1.40
2023-09-23T03:32:51.860Z,1.23
2023-09-23T03:36:54.134Z,1.23
2023-09-23T03:40:57.125Z,1.37
2023-09-23T03:44:58.854Z,1.73
2023-09-23T03:49:02.096Z,1.30
2023-09-23T03:53:03.825Z,1.60
2023-09-23T03:57:05.287Z,1.80
2023-09-23T04:01:07.121Z,2.03
2023-09-23T04:05:10.017Z,1.40
2023-09-23T04:09:11.459Z,1.60
2023-09-23T04:13:15.442Z,1.40
2023-09-23T04:17:17.245Z,1.50
2023-09-23T04:21:20.346Z,1.53
2023-09-23T04:25:21.985Z,1.17
2023-09-23T04:29:23.471Z,1.40
2023-09-23T04:33:25.153Z,1.33
2023-09-23T04:37:28.072Z,1.40
2023-09-23T04:41:29.496Z,1.50
2023-09-23T04:45:30.994Z,2.10
2023-09-23T04:49:32.652Z,1.67
2023-09-23T04:53:37.170Z,1.60
2023-09-23T04:57:38.870Z,1.30
2023-09-23T05:01:41.846Z,1.43
2023-09-23T05:05:43.622Z,1.37
2023-09-23T05:09:47.562Z,1.20
2023-09-23T05:13:49.292Z,1.40
2023-09-23T05:17:51.089Z,1.40
2023-09-23T05:21:52.848Z,1.17
2023-09-23T05:25:55.920Z,1.17
2023-09-23T05:29:57.361Z,1.33
2023-09-23T05:33:59.137Z,1.20
2023-09-23T05:38:00.662Z,1.40
2023-09-23T05:42:03.886Z,1.60
2023-09-23T05:46:05.543Z,1.07
2023-09-23T05:50:08.552Z,1.20
2023-09-23T05:54:10.359Z,1.50
2023-09-23T05:58:13.116Z,1.60
2023-09-23T06:02:14.897Z,1.27
2023-09-23T06:06:16.698Z,1.40
2023-09-23T06:10:18.416Z,1.30
2023-09-23T06:14:21.494Z,1.60
2023-09-23T06:18:23.329Z,1.50
2023-09-23T06:22:29.173Z,1.40
2023-09-23T06:26:31.115Z,1.23
2023-09-23T06:30:35.753Z,1.50
2023-09-23T06:34:37.253Z,1.47
2023-09-23T06:38:39.174Z,1.40
2023-09-23T06:42:40.660Z,1.50
2023-09-23T06:46:43.483Z,1.60
2023-09-23T06:50:44.989Z,1.70
2023-09-23T06:54:46.772Z,1.60
2023-09-23T06:58:49.260Z,2.13
2023-09-23T07:02:52.477Z,1.40
2023-09-23T07:06:54.214Z,1.10
2023-09-23T07:10:56.237Z,1.00
2023-09-23T07:14:58.474Z,1.03
2023-09-23T07:19:01.391Z,1.40
2023-09-23T07:23:04.345Z,1.17
2023-09-23T07:27:05.988Z,1.30
2023-09-23T07:31:10.618Z,1.00
2023-09-23T07:35:13.590Z,1.10
2023-09-23T07:39:16.536Z,1.43
2023-09-23T07:43:18.032Z,1.10
2023-09-23T07:47:19.627Z,1.20
2023-09-23T07:51:22.576Z,1.37
2023-09-23T07:55:24.119Z,1.50
2023-09-23T07:59:25.961Z,1.20
2023-09-23T08:03:27.668Z,1.40
2023-09-23T08:07:30.790Z,1.10
2023-09-23T08:11:34.055Z,1.50
2023-09-23T08:15:35.830Z,1.20
2023-09-23T08:19:38.387Z,1.17
2023-09-23T08:23:41.280Z,1.50
2023-09-23T08:27:43.416Z,1.00
2023-09-23T08:31:45.139Z,1.10
2023-09-23T08:35:47.845Z,1.00
2023-09-23T08:39:50.661Z,1.17
2023-09-23T08:43:52.313Z,1.10
2023-09-23T08:47:54.943Z,1.57
2023-09-23T08:51:56.854Z,1.20
2023-09-23T08:56:02.021Z,1.23
2023-09-23T09:00:04.234Z,1.10
2023-09-23T09:04:06.168Z,1.10
2023-09-23T09:08:08.004Z,1.43
2023-09-23T09:12:10.837Z,1.13
2023-09-23T09:16:12.518Z,1.40
2023-09-23T09:20:14.322Z,1.20
2023-09-23T09:24:15.827Z,1.47
2023-09-23T09:28:21.086Z,1.17
2023-09-23T09:32:29.724Z,1.40
2023-09-23T09:36:33.364Z,1.20
2023-09-23T09:40:35.124Z,1.13
2023-09-23T09:44:38.900Z,1.93
2023-09-23T09:48:41.370Z,1.17
2023-09-23T09:52:44.934Z,1.00
2023-09-23T09:56:49.152Z,1.23
2023-09-23T10:00:51.993Z,1.10
2023-09-23T10:04:53.805Z,1.00
2023-09-23T10:08:58.240Z,1.00
2023-09-23T10:13:07.350Z,1.30
2023-09-23T10:17:14.005Z,1.00
2023-09-23T10:21:25.906Z,1.00
2023-09-23T10:25:37.674Z,1.00
2023-09-23T10:29:43.420Z,1.03
2023-09-23T10:33:46.475Z,1.07
2023-09-23T10:37:49.382Z,1.10
2023-09-23T10:41:52.346Z,1.20
2023-09-23T10:45:55.866Z,1.23
2023-09-23T10:49:59.748Z,1.23
2023-09-23T10:54:02.865Z,1.00
2023-09-23T10:58:05.829Z,1.13
2023-09-23T11:02:08.516Z,1.23
2023-09-23T11:06:11.772Z,1.20
2023-09-23T11:10:14.003Z,1.07
2023-09-23T11:14:16.784Z,1.00
2023-09-23T11:18:18.923Z,1.10
2023-09-23T11:22:26.157Z,1.00
2023-09-23T11:26:28.111Z,1.00
2023-09-23T11:30:30.414Z,1.13
2023-09-23T11:34:31.847Z,1.90
2023-09-23T11:38:35.724Z,1.10
2023-09-23T11:42:37.247Z,1.30
2023-09-23T11:46:38.750Z,1.53
2023-09-23T11:50:40.389Z,1.10
2023-09-23T11:54:43.533Z,1.40
2023-09-23T11:58:51.639Z,1.70
2023-09-23T12:03:04.020Z,1.77
2023-09-23T12:07:05.495Z,1.40
2023-09-23T12:11:08.609Z,1.70
2023-09-23T12:15:11.828Z,1.60
2023-09-23T12:19:13.701Z,1.80
2023-09-23T12:23:15.220Z,1.50
2023-09-23T12:27:19.764Z,1.60
2023-09-23T12:31:21.532Z,2.00
2023-09-23T12:35:23.001Z,1.70
2023-09-23T12:39:26.561Z,1.90
2023-09-23T12:43:29.698Z,1.80
2023-09-23T12:47:44.519Z,1.90
2023-09-23T12:51:55.484Z,1.87
2023-09-23T12:55:56.915Z,1.70
2023-09-23T13:00:00.289Z,1.90
2023-09-23T13:04:01.949Z,1.90
2023-09-23T13:08:03.965Z,1.70
2023-09-23T13:12:06.131Z,1.60
2023-09-23T13:16:09.460Z,1.37
2023-09-23T13:20:11.739Z,1.40
2023-09-23T13:24:13.218Z,1.60
2023-09-23T13:28:14.812Z,1.40
2023-09-23T13:32:17.773Z,1.23
2023-09-23T13:36:19.541Z,1.70
2023-09-23T13:40:21.264Z,1.40
2023-09-23T13:44:22.900Z,1.50
2023-09-23T13:48:26.042Z,1.33
2023-09-23T13:52:27.827Z,1.23
2023-09-23T13:56:29.449Z,1.40
2023-09-23T14:00:31.506Z,1.30
2023-09-23T14:04:34.419Z,1.10
2023-09-23T14:08:35.973Z,1.60
2023-09-23T14:12:37.460Z,1.27
2023-09-23T14:16:38.937Z,1.10
2023-09-23T14:20:42.176Z,1.20
2023-09-23T14:24:43.761Z,1.00
2023-09-23T14:28:45.569Z,1.20
2023-09-23T14:32:47.326Z,1.23
2023-09-23T14:36:50.482Z,1.10
2023-09-23T14:40:51.957Z,1.30
2023-09-23T14:44:53.672Z,1.20
2023-09-23T14:48:55.199Z,1.10
2023-09-23T14:52:58.210Z,1.43
2023-09-23T14:56:59.757Z,1.13
2023-09-23T15:01:01.235Z,1.20
2023-09-23T15:05:02.872Z,0.97
2023-09-23T15:09:06.484Z,1.30
2023-09-23T15:13:08.203Z,1.37
2023-09-23T15:17:09.920Z,1.13
2023-09-23T15:21:11.699Z,1.17
2023-09-23T15:25:14.506Z,1.20
2023-09-23T15:29:16.299Z,1.27
2023-09-23T15:33:17.906Z,1.40
2023-09-23T15:37:19.637Z,1.43
2023-09-23T15:41:22.793Z,1.67
2023-09-23T15:45:24.670Z,1.40
2023-09-23T15:49:26.408Z,1.33
2023-09-23T15:53:28.111Z,1.30
2023-09-23T15:57:30.977Z,1.20
2023-09-23T16:01:34.388Z,0.87
2023-09-23T16:05:35.991Z,1.67
2023-09-23T16:09:37.476Z,1.10
2023-09-23T16:13:40.983Z,1.10
2023-09-23T16:17:42.784Z,1.13
2023-09-23T16:21:44.406Z,1.30
2023-09-23T16:25:45.916Z,1.10
2023-09-23T16:29:48.835Z,1.00
2023-09-23T16:33:50.586Z,1.50
2023-09-23T16:37:52.137Z,1.60
2023-09-23T16:41:53.642Z,1.20
2023-09-23T16:45:57.473Z,1.30
2023-09-23T16:49:58.956Z,1.20
2023-09-23T16:54:00.541Z,1.20
2023-09-23T16:58:02.614Z,1.13
2023-09-23T17:02:05.755Z,1.27
2023-09-23T17:06:07.446Z,1.50
2023-09-23T17:10:12.291Z,1.27
2023-09-23T17:14:13.896Z,1.47
2023-09-23T17:18:17.187Z,1.30
2023-09-23T17:22:18.994Z,1.33
2023-09-23T17:26:20.560Z,1.40
2023-09-23T17:30:23.163Z,1.30
2023-09-23T17:34:27.196Z,1.37
2023-09-23T17:38:28.784Z,1.53
2023-09-23T17:42:30.504Z,1.40
2023-09-23T17:46:33.220Z,1.40
2023-09-23T17:50:36.859Z,1.37
2023-09-23T17:54:38.540Z,1.27
2023-09-23T17:58:40.485Z,1.40
2023-09-23T18:02:42.398Z,1.50
2023-09-23T18:06:45.729Z,1.57
2023-09-23T18:10:48.611Z,1.30
2023-09-23T18:14:50.184Z,1.77
2023-09-23T18:18:51.748Z,1.40
2023-09-23T18:22:54.625Z,1.40
2023-09-23T18:26:56.328Z,1.30
2023-09-23T18:30:58.018Z,1.40
2023-09-23T18:34:59.651Z,1.57
2023-09-23T18:39:02.550Z,1.40
2023-09-23T18:43:04.703Z,1.40
2023-09-23T18:47:07.600Z,1.70
2023-09-23T18:51:09.410Z,1.53
2023-09-23T18:55:12.793Z,1.60
2023-09-23T18:59:14.338Z,1.73
2023-09-23T19:03:17.434Z,1.53
2023-09-23T19:07:20.612Z,1.50
2023-09-23T19:11:23.768Z,1.50
2023-09-23T19:15:25.299Z,1.70
2023-09-23T19:19:27.048Z,1.97
2023-09-23T19:23:28.755Z,1.77
2023-09-23T19:27:31.623Z,1.60
2023-09-23T19:31:33.383Z,2.43
2023-09-23T19:35:36.976Z,1.80
2023-09-23T19:39:38.810Z,1.93
2023-09-23T19:43:41.664Z,1.37
2023-09-23T19:47:43.263Z,1.50
2023-09-23T19:51:45.048Z,1.50
2023-09-23T19:55:46.564Z,1.83
2023-09-23T19:59:49.800Z,1.57
2023-09-23T20:03:53.127Z,1.50
2023-09-23T20:07:55.759Z,1.70
2023-09-23T20:11:57.739Z,1.60
2023-09-23T20:16:01.189Z,1.50
2023-09-23T20:20:03.144Z,1.53
2023-09-23T20:24:05.052Z,1.77
2023-09-23T20:28:10.096Z,1.80
2023-09-23T20:32:13.088Z,1.87
2023-09-23T20:36:14.652Z,1.70
2023-09-23T20:40:17.238Z,1.80
2023-09-23T20:44:19.061Z,1.90
2023-09-23T20:48:21.963Z,1.90
2023-09-23T20:52:24.485Z,1.73
2023-09-23T20:56:26.527Z,1.77
2023-09-23T21:00:28.186Z,1.90
2023-09-23T21:04:31.465Z,1.90
2023-09-23T21:08:33.422Z,1.80
2023-09-23T21:12:35.046Z,2.10
2023-09-23T21:16:36.883Z,2.10
2023-09-23T21:20:41.065Z,2.30
2023-09-23T21:24:43.031Z,2.03
2023-09-23T21:28:46.904Z,2.20
2023-09-23T21:32:48.691Z,2.30
2023-09-23T21:36:51.714Z,1.97
2023-09-23T21:40:56.137Z,1.90
2023-09-23T21:44:57.908Z,1.97
2023-09-23T21:48:59.599Z,2.00
2023-09-23T21:53:03.456Z,1.97
2023-09-23T21:57:05.283Z,1.93
2023-09-23T22:01:07.860Z,1.80
2023-09-23T22:05:12.068Z,1.70
2023-09-23T22:09:16.015Z,1.80
2023-09-23T22:13:17.908Z,1.60
2023-09-23T22:17:19.372Z,1.57
2023-09-23T22:21:21.171Z,1.90
2023-09-23T22:25:24.431Z,1.67
2023-09-23T22:29:27.053Z,1.70
2023-09-23T22:33:28.598Z,1.70
2023-09-23T22:37:30.641Z,1.50
2023-09-23T22:41:34.473Z,1.80
2023-09-23T22:45:39.445Z,1.87
2023-09-23T22:49:41.607Z,1.67
2023-09-23T22:53:44.676Z,1.70
2023-09-23T22:57:48.384Z,1.57
2023-09-23T23:01:49.847Z,1.60
2023-09-23T23:05:51.409Z,1.60
2023-09-23T23:09:53.173Z,1.93
2023-09-23T23:13:56.188Z,2.23
2023-09-23T23:17:58.027Z,1.50
2023-09-23T23:21:59.881Z,1.70
2023-09-23T23:26:05.833Z,1.90
2023-09-23T23:30:10.980Z,2.07
2023-09-23T23:34:12.728Z,1.57
2023-09-23T23:38:16.218Z,1.70
2023-09-23T23:42:18.140Z,1.70
2023-09-23T23:46:21.870Z,1.80
2023-09-23T23:50:23.935Z,1.70
2023-09-23T23:54:25.526Z,1.93
2023-09-23T23:58:27.328Z,1.57
